createdAt,value
2019-03-05T00:00:09.634Z,3.05
2019-03-05T00:02:37.527Z,3.25
2019-03-05T00:05:06.005Z,3.87
2019-03-05T00:07:34.210Z,3.42
2019-03-05T00:10:02.634Z,2.92
2019-03-05T00:12:30.537Z,3.15
2019-03-05T00:14:58.604Z,2.20
2019-03-05T00:17:26.998Z,2.70
2019-03-05T00:19:55.178Z,2.80
2019-03-05T00:22:23.023Z,2.58
2019-03-05T00:25:09.184Z,2.92
2019-03-05T00:27:38.869Z,3.05
2019-03-05T00:30:26.737Z,2.97
2019-03-05T00:32:56.997Z,3.50
2019-03-05T00:35:30.614Z,2.97
2019-03-05T00:38:07.012Z,2.87
2019-03-05T00:40:37.478Z,2.65
2019-03-05T00:43:12.396Z,2.85
2019-03-05T00:45:54.610Z,3.37
2019-03-05T00:48:34.899Z,2.80
2019-03-05T00:51:08.706Z,3.17
2019-03-05T00:54:07.914Z,3.12
2019-03-05T00:56:39.529Z,3.22
2019-03-05T00:59:26.841Z,3.08
2019-03-05T01:02:13.971Z,2.20
2019-03-05T01:05:07.041Z,2.70
2019-03-05T01:07:36.447Z,2.65
2019-03-05T01:10:04.617Z,3.08
2019-03-05T01:12:32.820Z,4.80
2019-03-05T01:15:00.457Z,2.62
2019-03-05T01:17:28.453Z,2.03
2019-03-05T01:19:56.626Z,2.55
2019-03-05T01:22:25.151Z,3.33
2019-03-05T01:24:53.320Z,1.85
2019-03-05T01:27:21.426Z,1.77
2019-03-05T01:29:49.675Z,1.85
2019-03-05T01:32:30.775Z,1.90
2019-03-05T01:35:21.245Z,2.08
2019-03-05T01:37:49.332Z,1.35
2019-03-05T01:40:36.539Z,1.90
2019-03-05T01:43:05.327Z,2.20
2019-03-05T01:45:33.093Z,1.02
2019-03-05T01:48:01.187Z,1.17
2019-03-05T01:50:29.241Z,1.55
2019-03-05T01:52:57.303Z,2.15
2019-03-05T01:55:25.489Z,2.15
2019-03-05T01:57:53.555Z,2.25
2019-03-05T02:00:21.620Z,1.73
2019-03-05T02:02:49.490Z,1.58
2019-03-05T02:05:17.820Z,1.12
2019-03-05T02:07:46.068Z,1.50
2019-03-05T02:10:17.837Z,2.20
2019-03-05T02:12:47.689Z,1.55
2019-03-05T02:15:16.136Z,2.45
2019-03-05T02:17:44.775Z,1.40
2019-03-05T02:20:14.577Z,1.50
2019-03-05T02:22:52.319Z,1.12
2019-03-05T02:25:46.005Z,1.33
2019-03-05T02:28:40.561Z,1.25
2019-03-05T02:31:27.793Z,2.00
2019-03-05T02:34:21.033Z,2.45
2019-03-05T02:37:27.077Z,1.80
2019-03-05T02:40:12.974Z,1.87
2019-03-05T02:42:44.153Z,2.03
2019-03-05T02:45:20.622Z,1.85
2019-03-05T02:48:07.903Z,2.42
2019-03-05T02:50:58.013Z,2.03
2019-03-05T02:53:39.940Z,2.30
2019-03-05T02:56:16.776Z,2.05
2019-03-05T02:58:44.024Z,2.72
2019-03-05T03:01:31.338Z,2.60
2019-03-05T03:04:03.334Z,2.37
2019-03-05T03:06:34.146Z,2.80
2019-03-05T03:09:20.259Z,2.42
2019-03-05T03:11:48.133Z,2.55
2019-03-05T03:14:16.330Z,2.95
2019-03-05T03:16:44.590Z,3.28
2019-03-05T03:19:12.764Z,3.00
2019-03-05T03:21:40.622Z,2.53
2019-03-05T03:24:09.949Z,3.00
2019-03-05T03:26:38.187Z,2.53
2019-03-05T03:29:05.929Z,2.10
2019-03-05T03:31:34.128Z,3.33
2019-03-05T03:34:02.299Z,2.90
2019-03-05T03:36:30.294Z,2.97
2019-03-05T03:38:58.393Z,3.08
2019-03-05T03:41:26.362Z,2.50
2019-03-05T03:43:54.062Z,3.10
2019-03-05T03:46:22.101Z,2.72
2019-03-05T03:48:49.784Z,2.83
2019-03-05T03:51:17.778Z,3.00
2019-03-05T03:53:45.793Z,3.20
2019-03-05T03:56:13.740Z,3.25
2019-03-05T03:58:41.794Z,2.90
2019-03-05T04:01:09.779Z,2.90
2019-03-05T04:03:38.285Z,3.28
2019-03-05T04:06:06.234Z,3.50
2019-03-05T04:08:34.515Z,4.35
2019-03-05T04:11:02.022Z,2.90
2019-03-05T04:13:29.724Z,3.70
2019-03-05T04:15:57.472Z,2.85
2019-03-05T04:18:25.535Z,3.28
2019-03-05T04:20:53.718Z,2.90
2019-03-05T04:23:22.157Z,2.92
2019-03-05T04:25:50.433Z,3.78
2019-03-05T04:28:18.281Z,3.30
2019-03-05T04:30:46.871Z,4.05
2019-03-05T04:33:14.834Z,4.72
2019-03-05T04:35:42.877Z,4.40
2019-03-05T04:38:10.844Z,5.20
2019-03-05T04:40:38.783Z,5.37
2019-03-05T04:43:06.842Z,5.15
2019-03-05T04:45:40.815Z,5.53
2019-03-05T04:48:08.911Z,5.95
2019-03-05T04:50:44.614Z,5.55
2019-03-05T04:53:12.598Z,5.90
2019-03-05T04:55:40.570Z,6.12
2019-03-05T04:58:08.526Z,6.12
2019-03-05T05:00:36.600Z,6.62
2019-03-05T05:03:04.589Z,5.70
2019-03-05T05:05:32.986Z,6.18
2019-03-05T05:08:01.566Z,6.05
2019-03-05T05:10:29.510Z,5.12
2019-03-05T05:12:57.088Z,6.53
2019-03-05T05:15:29.038Z,5.68
2019-03-05T05:17:59.086Z,5.12
2019-03-05T05:20:27.488Z,6.05
2019-03-05T05:22:58.884Z,5.85
2019-03-05T05:25:26.812Z,5.12
2019-03-05T05:27:55.362Z,5.37
2019-03-05T05:30:30.421Z,6.20
2019-03-05T05:32:59.070Z,5.65
2019-03-05T05:35:26.762Z,4.30
2019-03-05T05:37:54.727Z,4.82
2019-03-05T05:40:23.878Z,4.68
2019-03-05T05:42:51.892Z,4.75
2019-03-05T05:45:20.030Z,5.28
2019-03-05T05:47:48.083Z,5.40
2019-03-05T05:50:16.110Z,3.80
2019-03-05T05:52:44.060Z,3.55
2019-03-05T05:55:12.239Z,3.75
2019-03-05T05:57:40.083Z,3.15
2019-03-05T06:00:10.283Z,3.50
2019-03-05T06:02:38.409Z,3.65
2019-03-05T06:05:06.457Z,3.80
2019-03-05T06:07:34.522Z,5.62
2019-03-05T06:10:02.612Z,4.60
2019-03-05T06:12:30.684Z,3.80
2019-03-05T06:14:58.820Z,3.87
2019-03-05T06:17:27.989Z,4.45
2019-03-05T06:19:56.131Z,4.55
2019-03-05T06:22:23.872Z,3.58
2019-03-05T06:24:52.013Z,5.37
2019-03-05T06:27:19.998Z,5.25
2019-03-05T06:29:48.049Z,5.05
2019-03-05T06:32:17.469Z,5.40
2019-03-05T06:34:43.695Z,6.60
2019-03-05T06:37:11.665Z,5.60
2019-03-05T06:39:39.645Z,6.72
2019-03-05T06:42:07.654Z,7.00
2019-03-05T06:44:35.415Z,6.55
2019-03-05T06:47:03.437Z,5.72
2019-03-05T06:49:31.376Z,6.75
2019-03-05T06:51:59.053Z,6.45
2019-03-05T06:54:27.688Z,4.90
2019-03-05T06:56:55.639Z,5.37
2019-03-05T06:59:24.196Z,4.93
2019-03-05T07:01:52.201Z,5.10
2019-03-05T07:04:20.139Z,6.60
2019-03-05T07:06:54.785Z,4.90
2019-03-05T07:09:54.332Z,5.12
2019-03-05T07:12:33.664Z,4.43
2019-03-05T07:15:19.754Z,4.75
2019-03-05T07:17:49.493Z,4.60
2019-03-05T07:20:36.862Z,4.70
2019-03-05T07:23:10.566Z,5.00
2019-03-05T07:25:38.748Z,4.62
2019-03-05T07:28:07.047Z,4.37
2019-03-05T07:30:35.148Z,4.75
2019-03-05T07:33:03.765Z,3.90
2019-03-05T07:35:33.982Z,4.15
2019-03-05T07:38:02.561Z,4.55
2019-03-05T07:40:30.425Z,4.50
2019-03-05T07:42:58.290Z,4.12
2019-03-05T07:45:26.366Z,3.97
2019-03-05T07:47:55.053Z,4.43
2019-03-05T07:50:22.834Z,4.28
2019-03-05T07:52:50.903Z,3.35
2019-03-05T07:55:19.507Z,4.32
2019-03-05T07:57:47.664Z,4.78
2019-03-05T08:00:21.852Z,4.18
2019-03-05T08:02:49.923Z,4.55
2019-03-05T08:05:18.221Z,5.00
2019-03-05T08:07:46.388Z,4.87
2019-03-05T08:10:31.521Z,5.40
2019-03-05T08:13:05.056Z,5.65
2019-03-05T08:15:45.712Z,4.78
2019-03-05T08:18:13.472Z,5.93
2019-03-05T08:20:41.549Z,4.78
2019-03-05T08:23:10.007Z,5.72
2019-03-05T08:25:38.128Z,5.60
2019-03-05T08:28:06.285Z,5.32
2019-03-05T08:30:34.039Z,6.05
2019-03-05T08:33:02.135Z,5.65
2019-03-05T08:35:31.129Z,5.80
2019-03-05T08:37:59.097Z,5.70
2019-03-05T08:40:27.133Z,5.90
2019-03-05T08:42:55.214Z,5.70
2019-03-05T08:45:29.404Z,5.68
2019-03-05T08:47:51.468Z,5.55
2019-03-05T08:50:19.341Z,5.68
2019-03-05T08:52:47.513Z,5.80
2019-03-05T08:55:15.560Z,5.95
2019-03-05T08:57:43.724Z,5.75
2019-03-05T09:00:12.729Z,5.90
2019-03-05T09:02:48.629Z,6.05
2019-03-05T09:05:10.371Z,5.28
2019-03-05T09:07:38.028Z,5.78
2019-03-05T09:10:07.406Z,6.28
2019-03-05T09:12:35.266Z,5.82
2019-03-05T09:15:03.163Z,5.87
2019-03-05T09:17:31.151Z,6.37
2019-03-05T09:19:58.845Z,6.32
2019-03-05T09:22:27.398Z,6.35
2019-03-05T09:24:55.318Z,6.12
2019-03-05T09:27:23.833Z,6.25
2019-03-05T09:29:52.337Z,5.97
2019-03-05T09:32:20.433Z,5.82
2019-03-05T09:34:48.410Z,5.35
2019-03-05T09:37:16.870Z,4.97
2019-03-05T09:39:44.794Z,5.87
2019-03-05T09:42:12.793Z,6.60
2019-03-05T09:44:40.777Z,5.35
2019-03-05T09:47:08.449Z,4.47
2019-03-05T09:49:35.881Z,5.05
2019-03-05T09:52:03.628Z,4.30
2019-03-05T09:54:31.022Z,5.03
2019-03-05T09:56:58.973Z,4.50
2019-03-05T09:59:26.993Z,3.97
2019-03-05T10:01:54.953Z,4.50
2019-03-05T10:04:22.889Z,4.90
2019-03-05T10:06:51.178Z,3.53
2019-03-05T10:09:19.152Z,3.58
2019-03-05T10:11:47.176Z,4.30
2019-03-05T10:14:15.458Z,4.37
2019-03-05T10:16:43.167Z,4.43
2019-03-05T10:19:11.193Z,4.57
2019-03-05T10:21:46.188Z,3.35
2019-03-05T10:24:10.853Z,2.92
2019-03-05T10:26:35.120Z,2.87
2019-03-05T10:29:03.065Z,3.35
2019-03-05T10:31:33.218Z,3.70
2019-03-05T10:33:59.243Z,4.47
2019-03-05T10:36:27.091Z,5.45
2019-03-05T10:38:57.676Z,5.05
2019-03-05T10:41:23.147Z,4.50
2019-03-05T10:43:51.556Z,4.45
2019-03-05T10:46:19.687Z,3.95
2019-03-05T10:48:47.679Z,4.50
2019-03-05T10:51:15.747Z,4.25
2019-03-05T10:53:43.696Z,3.72
2019-03-05T10:56:11.670Z,3.42
2019-03-05T10:58:39.969Z,2.90
2019-03-05T11:01:08.967Z,2.75
2019-03-05T11:03:37.432Z,2.78
2019-03-05T11:06:05.649Z,2.30
2019-03-05T11:08:33.690Z,2.85
2019-03-05T11:11:12.574Z,2.25
2019-03-05T11:13:29.421Z,2.72
2019-03-05T11:15:57.354Z,2.35
2019-03-05T11:18:29.261Z,2.50
2019-03-05T11:20:53.277Z,2.60
2019-03-05T11:23:21.360Z,2.12
2019-03-05T11:25:49.334Z,3.45
2019-03-05T11:28:17.310Z,2.05
2019-03-05T11:30:45.292Z,2.55
2019-03-05T11:33:13.242Z,2.08
2019-03-05T11:35:41.774Z,1.80
2019-03-05T11:38:09.704Z,2.40
2019-03-05T11:40:38.188Z,2.15
2019-03-05T11:43:07.707Z,1.87
2019-03-05T11:45:35.659Z,3.00
2019-03-05T11:48:03.421Z,2.25
2019-03-05T11:50:32.071Z,2.22
2019-03-05T11:53:00.165Z,2.05
2019-03-05T11:55:28.112Z,2.40
2019-03-05T11:57:56.083Z,2.42
2019-03-05T12:00:46.420Z,2.28
2019-03-05T12:03:15.470Z,2.70
2019-03-05T12:05:43.668Z,1.87
2019-03-05T12:08:11.643Z,1.98
2019-03-05T12:10:39.901Z,2.33
2019-03-05T12:13:07.883Z,2.67
2019-03-05T12:15:35.823Z,2.67
2019-03-05T12:18:04.192Z,1.77
2019-03-05T12:20:32.199Z,1.98
2019-03-05T12:23:02.349Z,1.83
2019-03-05T12:25:28.902Z,1.92
2019-03-05T12:27:56.818Z,1.75
2019-03-05T12:30:24.527Z,1.27
2019-03-05T12:32:52.515Z,1.60
2019-03-05T12:35:20.518Z,1.55
2019-03-05T12:37:48.471Z,2.17
2019-03-05T12:40:16.576Z,1.55
2019-03-05T12:42:44.739Z,1.40
2019-03-05T12:45:12.827Z,2.20
2019-03-05T12:47:40.806Z,1.50
2019-03-05T12:50:10.818Z,1.58
2019-03-05T12:52:39.264Z,1.58
2019-03-05T12:55:07.337Z,1.75
2019-03-05T12:57:35.403Z,1.80
2019-03-05T13:00:03.407Z,2.05
2019-03-05T13:02:31.239Z,2.67
2019-03-05T13:04:59.329Z,2.35
2019-03-05T13:07:27.307Z,2.20
2019-03-05T13:09:57.067Z,2.10
2019-03-05T13:12:23.383Z,3.08
2019-03-05T13:14:51.557Z,1.80
2019-03-05T13:17:20.188Z,2.45
2019-03-05T13:19:49.001Z,2.28
2019-03-05T13:22:16.513Z,2.35
2019-03-05T13:24:46.919Z,2.17
2019-03-05T13:27:14.135Z,2.35
2019-03-05T13:29:42.084Z,2.00
2019-03-05T13:32:10.078Z,2.67
2019-03-05T13:34:38.017Z,2.22
2019-03-05T13:37:06.012Z,2.62
2019-03-05T13:39:34.053Z,1.92
2019-03-05T13:42:02.331Z,1.65
2019-03-05T13:44:33.911Z,2.55
2019-03-05T13:47:00.901Z,1.67
2019-03-05T13:49:57.477Z,2.20
2019-03-05T13:52:36.020Z,1.87
2019-03-05T13:55:26.950Z,1.80
2019-03-05T13:58:17.828Z,2.00
2019-03-05T14:00:45.541Z,1.87
2019-03-05T14:03:33.674Z,1.90
2019-03-05T14:06:23.932Z,2.45
2019-03-05T14:09:11.029Z,1.90
2019-03-05T14:11:39.070Z,1.67
2019-03-05T14:14:07.041Z,1.45
2019-03-05T14:16:34.763Z,2.25
2019-03-05T14:19:02.800Z,1.75
2019-03-05T14:21:30.695Z,1.62
2019-03-05T14:23:59.014Z,1.75
2019-03-05T14:26:26.840Z,1.77
2019-03-05T14:28:55.244Z,2.20
2019-03-05T14:31:23.308Z,1.73
2019-03-05T14:33:51.206Z,1.65
2019-03-05T14:36:19.185Z,1.60
2019-03-05T14:38:47.605Z,1.95
2019-03-05T14:41:15.317Z,1.50
2019-03-05T14:43:43.283Z,1.90
2019-03-05T14:46:12.368Z,1.77
2019-03-05T14:48:40.386Z,1.58
2019-03-05T14:51:09.876Z,2.10
2019-03-05T14:53:37.853Z,1.75
2019-03-05T14:56:05.535Z,1.87
2019-03-05T14:58:33.206Z,1.90
2019-03-05T15:01:00.937Z,1.37
2019-03-05T15:03:28.890Z,1.55
2019-03-05T15:05:56.897Z,1.70
2019-03-05T15:08:24.909Z,1.10
2019-03-05T15:10:52.874Z,1.40
2019-03-05T15:13:20.790Z,1.40
2019-03-05T15:15:48.776Z,1.00
2019-03-05T15:18:16.771Z,1.37
2019-03-05T15:20:44.177Z,1.23
2019-03-05T15:23:13.908Z,1.30
2019-03-05T15:25:41.781Z,2.12
2019-03-05T15:28:10.432Z,1.20
2019-03-05T15:30:38.229Z,1.40
2019-03-05T15:33:06.363Z,1.67
2019-03-05T15:35:34.316Z,1.37
2019-03-05T15:38:01.995Z,1.10
2019-03-05T15:40:29.997Z,1.70
2019-03-05T15:42:57.672Z,1.30
2019-03-05T15:45:26.079Z,1.58
2019-03-05T15:47:54.183Z,1.30
2019-03-05T15:50:22.208Z,1.67
2019-03-05T15:52:50.200Z,1.25
2019-03-05T15:55:18.163Z,1.65
2019-03-05T15:57:45.873Z,1.75
2019-03-05T16:00:18.333Z,1.92
2019-03-05T16:02:46.292Z,1.42
2019-03-05T16:05:16.569Z,2.05
2019-03-05T16:07:43.914Z,1.48
2019-03-05T16:10:13.259Z,1.48
2019-03-05T16:12:42.609Z,1.92
2019-03-05T16:15:09.113Z,1.90
2019-03-05T16:17:35.015Z,2.05
2019-03-05T16:20:02.713Z,1.15
2019-03-05T16:22:30.424Z,1.58
2019-03-05T16:24:58.356Z,1.67
2019-03-05T16:27:30.030Z,1.33
2019-03-05T16:29:55.857Z,1.27
2019-03-05T16:32:30.572Z,1.30
2019-03-05T16:35:18.429Z,1.42
2019-03-05T16:38:04.275Z,1.30
2019-03-05T16:40:52.308Z,1.50
2019-03-05T16:43:26.355Z,1.50
2019-03-05T16:46:13.381Z,1.75
2019-03-05T16:48:56.817Z,1.73
2019-03-05T16:51:44.665Z,1.85
2019-03-05T16:54:34.771Z,2.22
2019-03-05T16:57:30.348Z,1.45
2019-03-05T17:00:05.912Z,1.50
2019-03-05T17:03:02.049Z,2.22
2019-03-05T17:05:36.402Z,1.40
2019-03-05T17:08:21.939Z,2.35
2019-03-05T17:11:08.933Z,1.80
2019-03-05T17:13:37.534Z,2.12
2019-03-05T17:16:05.296Z,1.80
2019-03-05T17:18:33.383Z,1.60
2019-03-05T17:21:01.731Z,1.60
2019-03-05T17:23:29.843Z,1.83
2019-03-05T17:25:58.573Z,1.98
2019-03-05T17:28:26.750Z,1.67
2019-03-05T17:30:55.318Z,2.00
2019-03-05T17:33:23.216Z,2.05
2019-03-05T17:35:51.352Z,2.20
2019-03-05T17:38:19.451Z,1.92
2019-03-05T17:40:48.229Z,1.70
2019-03-05T17:43:16.533Z,2.10
2019-03-05T17:45:44.704Z,2.47
2019-03-05T17:48:12.781Z,2.50
2019-03-05T17:50:40.876Z,2.65
2019-03-05T17:53:09.453Z,4.10
2019-03-05T17:55:37.398Z,2.62
2019-03-05T17:58:05.979Z,2.85
2019-03-05T18:00:35.273Z,2.75
2019-03-05T18:03:03.445Z,2.70
2019-03-05T18:05:31.214Z,2.10
2019-03-05T18:07:59.402Z,2.60
2019-03-05T18:10:27.465Z,2.25
2019-03-05T18:12:55.830Z,3.22
2019-03-05T18:15:24.030Z,4.07
2019-03-05T18:17:52.195Z,4.00
2019-03-05T18:20:20.358Z,3.10
2019-03-05T18:22:48.214Z,3.10
2019-03-05T18:25:16.296Z,2.60
2019-03-05T18:27:44.376Z,2.05
2019-03-05T18:30:13.583Z,2.10
2019-03-05T18:32:41.660Z,2.08
2019-03-05T18:35:10.037Z,3.30
2019-03-05T18:37:38.069Z,2.15
2019-03-05T18:40:07.174Z,2.62
2019-03-05T18:42:35.295Z,3.10
2019-03-05T18:45:03.521Z,5.50
2019-03-05T18:47:31.580Z,3.65
2019-03-05T18:49:59.720Z,3.25
2019-03-05T18:52:27.227Z,6.43
2019-03-05T18:54:55.258Z,2.70
2019-03-05T18:57:24.271Z,2.62
2019-03-05T18:59:52.376Z,3.33
2019-03-05T19:02:20.651Z,3.58
2019-03-05T19:04:48.700Z,3.08
2019-03-05T19:07:16.911Z,3.67
2019-03-05T19:09:45.059Z,3.12
2019-03-05T19:12:13.129Z,2.85
2019-03-05T19:14:41.183Z,3.00
2019-03-05T19:17:09.264Z,4.07
2019-03-05T19:19:37.548Z,3.35
2019-03-05T19:22:05.606Z,2.95
2019-03-05T19:24:33.678Z,3.60
2019-03-05T19:27:02.110Z,3.30
2019-03-05T19:29:30.264Z,2.75
2019-03-05T19:31:58.287Z,3.10
2019-03-05T19:34:26.480Z,4.07
2019-03-05T19:36:54.563Z,3.08
2019-03-05T19:39:22.435Z,3.60
2019-03-05T19:41:56.035Z,4.00
2019-03-05T19:44:18.178Z,4.25
2019-03-05T19:46:46.320Z,5.80
2019-03-05T19:49:14.157Z,5.40
2019-03-05T19:51:42.301Z,5.47
2019-03-05T19:54:10.448Z,3.90
2019-03-05T19:56:40.007Z,3.20
2019-03-05T19:59:08.801Z,3.33
2019-03-05T20:01:40.177Z,3.28
2019-03-05T20:04:11.956Z,2.97
2019-03-05T20:06:37.159Z,3.58
2019-03-05T20:09:06.142Z,3.78
2019-03-05T20:11:34.412Z,3.42
2019-03-05T20:14:02.490Z,3.85
2019-03-05T20:16:30.581Z,3.53
2019-03-05T20:18:58.638Z,4.20
2019-03-05T20:21:26.391Z,3.17
2019-03-05T20:23:54.272Z,3.05
2019-03-05T20:26:22.611Z,3.85
2019-03-05T20:28:50.678Z,3.00
2019-03-05T20:31:18.495Z,3.35
2019-03-05T20:33:46.250Z,3.47
2019-03-05T20:36:14.450Z,4.60
2019-03-05T20:38:42.589Z,5.00
2019-03-05T20:41:11.490Z,5.32
2019-03-05T20:43:39.569Z,4.85
2019-03-05T20:46:15.796Z,4.45
2019-03-05T20:48:43.925Z,3.00
2019-03-05T20:51:11.752Z,3.90
2019-03-05T20:53:39.641Z,3.10
2019-03-05T20:56:07.685Z,3.58
2019-03-05T20:58:35.974Z,3.22
2019-03-05T21:01:04.115Z,3.40
2019-03-05T21:03:31.901Z,2.90
2019-03-05T21:06:00.350Z,3.58
2019-03-05T21:08:29.058Z,4.00
2019-03-05T21:10:57.761Z,4.00
2019-03-05T21:13:26.293Z,3.50
2019-03-05T21:15:54.536Z,3.92
2019-03-05T21:18:22.686Z,3.60
2019-03-05T21:20:50.874Z,4.05
2019-03-05T21:23:19.017Z,3.65
2019-03-05T21:25:47.113Z,4.03
2019-03-05T21:28:15.782Z,3.45
2019-03-05T21:30:43.639Z,3.90
2019-03-05T21:33:11.818Z,3.03
2019-03-05T21:35:40.094Z,2.90
2019-03-05T21:38:08.281Z,3.85
2019-03-05T21:40:36.449Z,3.10
2019-03-05T21:43:04.490Z,3.55
2019-03-05T21:45:34.131Z,3.55
2019-03-05T21:48:01.863Z,3.12
2019-03-05T21:50:29.979Z,2.45
2019-03-05T21:52:58.008Z,3.17
2019-03-05T21:55:26.649Z,3.22
2019-03-05T21:57:54.805Z,3.85
2019-03-05T22:00:23.352Z,3.25
2019-03-05T22:02:51.435Z,3.83
2019-03-05T22:05:19.488Z,3.53
2019-03-05T22:07:47.556Z,3.85
2019-03-05T22:10:17.655Z,4.10
2019-03-05T22:12:45.752Z,3.72
2019-03-05T22:15:14.352Z,3.33
2019-03-05T22:17:42.421Z,3.40
2019-03-05T22:20:10.984Z,3.47
2019-03-05T22:22:40.092Z,3.80
2019-03-05T22:25:08.067Z,3.80
2019-03-05T22:27:36.256Z,4.32
2019-03-05T22:30:04.729Z,3.97
2019-03-05T22:32:32.822Z,3.53
2019-03-05T22:35:01.164Z,3.80
2019-03-05T22:37:29.887Z,4.00
2019-03-05T22:39:58.127Z,4.07
2019-03-05T22:42:26.205Z,3.92
2019-03-05T22:44:53.948Z,4.18
2019-03-05T22:47:22.126Z,4.10
2019-03-05T22:49:49.905Z,3.50
2019-03-05T22:52:18.087Z,3.72
2019-03-05T22:54:46.104Z,3.65
2019-03-05T22:57:14.220Z,3.58
2019-03-05T22:59:42.303Z,4.40
2019-03-05T23:02:10.954Z,3.12
2019-03-05T23:04:40.181Z,3.80
2019-03-05T23:07:08.355Z,3.70
2019-03-05T23:09:36.609Z,4.00
2019-03-05T23:12:04.688Z,3.30
2019-03-05T23:14:32.751Z,3.33
2019-03-05T23:17:00.713Z,3.55
2019-03-05T23:19:28.502Z,2.97
2019-03-05T23:21:56.284Z,4.07
2019-03-05T23:24:24.427Z,3.72
2019-03-05T23:26:52.307Z,3.28
2019-03-05T23:29:23.197Z,3.33
2019-03-05T23:31:51.801Z,3.65
2019-03-05T23:34:19.592Z,3.37
2019-03-05T23:36:47.978Z,3.47
2019-03-05T23:39:16.760Z,3.62
2019-03-05T23:41:44.842Z,3.60
2019-03-05T23:44:12.879Z,3.03
2019-03-05T23:46:40.648Z,3.40
2019-03-05T23:49:09.350Z,3.45
2019-03-05T23:51:37.408Z,3.47
2019-03-05T23:54:05.510Z,3.40
2019-03-05T23:56:33.639Z,3.20
2019-03-05T23:59:01.508Z,3.50
